sensor_id;sensor_type;location;lat;lon;timestamp;P1;durP1;ratioP1;P2;durP2;ratioP2
9815;SDS011;4947;44.526;11.360;2023-03-24T00:00:59;4.65;;;2.88;;
9815;SDS011;4947;44.526;11.360;2023-03-24T00:03:27;8.02;;;2.65;;
9815;SDS011;4947;44.526;11.360;2023-03-24T00:05:57;3.65;;;2.78;;
9815;SDS011;4947;44.526;11.360;2023-03-24T00:08:26;2.90;;;2.53;;
9815;SDS011;4947;44.526;11.360;2023-03-24T00:10:58;4.72;;;2.90;;
9815;SDS011;4947;44.526;11.360;2023-03-24T00:13:28;3.83;;;2.65;;
9815;SDS011;4947;44.526;11.360;2023-03-24T00:15:57;4.20;;;3.38;;
9815;SDS011;4947;44.526;11.360;2023-03-24T00:18:26;6.22;;;3.17;;
9815;SDS011;4947;44.526;11.360;2023-03-24T00:20:54;5.35;;;3.20;;
9815;SDS011;4947;44.526;11.360;2023-03-24T00:23:24;6.60;;;3.45;;
9815;SDS011;4947;44.526;11.360;2023-03-24T00:26:00;4.75;;;2.90;;
9815;SDS011;4947;44.526;11.360;2023-03-24T00:28:29;7.13;;;3.00;;
9815;SDS011;4947;44.526;11.360;2023-03-24T00:30:58;3.03;;;2.65;;
9815;SDS011;4947;44.526;11.360;2023-03-24T00:33:26;4.43;;;3.25;;
9815;SDS011;4947;44.526;11.360;2023-03-24T00:35:57;4.45;;;3.00;;
9815;SDS011;4947;44.526;11.360;2023-03-24T00:38:26;5.40;;;2.92;;
9815;SDS011;4947;44.526;11.360;2023-03-24T00:40:54;5.28;;;3.10;;
9815;SDS011;4947;44.526;11.360;2023-03-24T00:43:21;5.03;;;3.00;;
9815;SDS011;4947;44.526;11.360;2023-03-24T00:45:48;3.50;;;2.85;;
9815;SDS011;4947;44.526;11.360;2023-03-24T00:48:17;3.88;;;2.90;;
9815;SDS011;4947;44.526;11.360;2023-03-24T00:50:48;5.82;;;3.00;;
9815;SDS011;4947;44.526;11.360;2023-03-24T00:53:17;3.88;;;2.83;;
9815;SDS011;4947;44.526;11.360;2023-03-24T00:55:48;4.40;;;3.25;;
9815;SDS011;4947;44.526;11.360;2023-03-24T00:58:17;4.55;;;2.92;;
9815;SDS011;4947;44.526;11.360;2023-03-24T01:00:45;6.25;;;3.50;;
9815;SDS011;4947;44.526;11.360;2023-03-24T01:03:14;6.13;;;3.47;;
9815;SDS011;4947;44.526;11.360;2023-03-24T01:05:46;3.30;;;3.00;;
9815;SDS011;4947;44.526;11.360;2023-03-24T01:08:14;27.13;;;4.68;;
9815;SDS011;4947;44.526;11.360;2023-03-24T01:10:44;8.07;;;3.08;;
9815;SDS011;4947;44.526;11.360;2023-03-24T01:13:19;4.82;;;3.72;;
9815;SDS011;4947;44.526;11.360;2023-03-24T01:15:47;4.28;;;3.55;;
9815;SDS011;4947;44.526;11.360;2023-03-24T01:18:15;6.82;;;3.47;;
9815;SDS011;4947;44.526;11.360;2023-03-24T01:20:44;5.32;;;2.97;;
9815;SDS011;4947;44.526;11.360;2023-03-24T01:23:13;4.80;;;3.08;;
9815;SDS011;4947;44.526;11.360;2023-03-24T01:25:43;10.15;;;3.97;;
9815;SDS011;4947;44.526;11.360;2023-03-24T01:28:12;4.18;;;3.20;;
9815;SDS011;4947;44.526;11.360;2023-03-24T01:30:42;4.70;;;3.47;;
9815;SDS011;4947;44.526;11.360;2023-03-24T01:33:10;6.10;;;3.40;;
9815;SDS011;4947;44.526;11.360;2023-03-24T01:35:38;5.55;;;3.30;;
9815;SDS011;4947;44.526;11.360;2023-03-24T01:38:05;4.68;;;3.67;;
9815;SDS011;4947;44.526;11.360;2023-03-24T01:40:35;4.65;;;3.03;;
9815;SDS011;4947;44.526;11.360;2023-03-24T01:43:05;4.22;;;2.97;;
9815;SDS011;4947;44.526;11.360;2023-03-24T01:45:42;3.88;;;3.00;;
9815;SDS011;4947;44.526;11.360;2023-03-24T01:48:26;5.13;;;3.22;;
9815;SDS011;4947;44.526;11.360;2023-03-24T01:50:58;3.47;;;2.78;;
9815;SDS011;4947;44.526;11.360;2023-03-24T01:53:27;5.50;;;2.92;;
9815;SDS011;4947;44.526;11.360;2023-03-24T01:55:58;3.45;;;3.13;;
9815;SDS011;4947;44.526;11.360;2023-03-24T01:58:26;6.68;;;3.15;;
9815;SDS011;4947;44.526;11.360;2023-03-24T02:00:57;3.70;;;3.20;;
9815;SDS011;4947;44.526;11.360;2023-03-24T02:03:25;7.20;;;2.70;;
9815;SDS011;4947;44.526;11.360;2023-03-24T02:05:58;4.40;;;2.92;;
9815;SDS011;4947;44.526;11.360;2023-03-24T02:08:29;7.05;;;2.88;;
9815;SDS011;4947;44.526;11.360;2023-03-24T02:11:00;5.28;;;2.58;;
9815;SDS011;4947;44.526;11.360;2023-03-24T02:13:28;4.45;;;2.65;;
9815;SDS011;4947;44.526;11.360;2023-03-24T02:16:01;4.90;;;2.83;;
9815;SDS011;4947;44.526;11.360;2023-03-24T02:18:45;4.15;;;3.38;;
9815;SDS011;4947;44.526;11.360;2023-03-24T02:27:22;3.72;;;3.08;;
9815;SDS011;4947;44.526;11.360;2023-03-24T02:39:19;3.33;;;2.92;;
9815;SDS011;4947;44.526;11.360;2023-03-24T02:42:21;4.88;;;3.40;;
9815;SDS011;4947;44.526;11.360;2023-03-24T02:44:56;3.63;;;2.67;;
9815;SDS011;4947;44.526;11.360;2023-03-24T02:47:40;5.63;;;3.10;;
9815;SDS011;4947;44.526;11.360;2023-03-24T02:50:17;6.85;;;3.00;;
9815;SDS011;4947;44.526;11.360;2023-03-24T02:52:56;4.55;;;3.13;;
9815;SDS011;4947;44.526;11.360;2023-03-24T02:55:31;4.38;;;2.97;;
9815;SDS011;4947;44.526;11.360;2023-03-24T02:58:05;3.88;;;3.47;;
9815;SDS011;4947;44.526;11.360;2023-03-24T03:00:38;5.28;;;3.55;;
9815;SDS011;4947;44.526;11.360;2023-03-24T03:03:12;5.00;;;3.30;;
9815;SDS011;4947;44.526;11.360;2023-03-24T03:05:45;4.00;;;3.38;;
9815;SDS011;4947;44.526;11.360;2023-03-24T03:08:18;5.07;;;3.63;;
9815;SDS011;4947;44.526;11.360;2023-03-24T03:10:49;4.38;;;3.60;;
9815;SDS011;4947;44.526;11.360;2023-03-24T03:13:19;3.65;;;2.88;;
9815;SDS011;4947;44.526;11.360;2023-03-24T03:15:52;9.27;;;3.22;;
9815;SDS011;4947;44.526;11.360;2023-03-24T03:18:21;4.63;;;3.25;;
9815;SDS011;4947;44.526;11.360;2023-03-24T03:20:53;4.20;;;3.42;;
9815;SDS011;4947;44.526;11.360;2023-03-24T03:23:27;4.82;;;3.13;;
9815;SDS011;4947;44.526;11.360;2023-03-24T03:26:01;3.20;;;2.83;;
9815;SDS011;4947;44.526;11.360;2023-03-24T03:28:31;4.40;;;3.75;;
9815;SDS011;4947;44.526;11.360;2023-03-24T03:31:02;6.18;;;3.30;;
9815;SDS011;4947;44.526;11.360;2023-03-24T03:33:35;4.15;;;3.53;;
9815;SDS011;4947;44.526;11.360;2023-03-24T03:36:09;7.55;;;3.35;;
9815;SDS011;4947;44.526;11.360;2023-03-24T03:38:43;7.18;;;3.92;;
9815;SDS011;4947;44.526;11.360;2023-03-24T03:41:22;3.88;;;3.05;;
9815;SDS011;4947;44.526;11.360;2023-03-24T03:43:50;6.78;;;3.90;;
9815;SDS011;4947;44.526;11.360;2023-03-24T03:46:18;5.60;;;3.13;;
9815;SDS011;4947;44.526;11.360;2023-03-24T03:48:45;4.32;;;3.00;;
9815;SDS011;4947;44.526;11.360;2023-03-24T03:51:13;4.22;;;3.25;;
9815;SDS011;4947;44.526;11.360;2023-03-24T03:53:44;7.43;;;3.53;;
9815;SDS011;4947;44.526;11.360;2023-03-24T03:56:14;5.20;;;3.30;;
9815;SDS011;4947;44.526;11.360;2023-03-24T03:58:46;4.00;;;3.30;;
9815;SDS011;4947;44.526;11.360;2023-03-24T04:01:15;4.20;;;3.20;;
9815;SDS011;4947;44.526;11.360;2023-03-24T04:03:55;8.30;;;4.03;;
9815;SDS011;4947;44.526;11.360;2023-03-24T04:06:38;5.10;;;3.70;;
9815;SDS011;4947;44.526;11.360;2023-03-24T04:09:14;4.03;;;3.40;;
9815;SDS011;4947;44.526;11.360;2023-03-24T04:11:59;8.32;;;4.20;;
9815;SDS011;4947;44.526;11.360;2023-03-24T04:14:52;4.55;;;3.22;;
9815;SDS011;4947;44.526;11.360;2023-03-24T04:17:42;3.92;;;3.53;;
9815;SDS011;4947;44.526;11.360;2023-03-24T04:20:17;5.07;;;3.20;;
9815;SDS011;4947;44.526;11.360;2023-03-24T04:22:51;6.75;;;3.72;;
9815;SDS011;4947;44.526;11.360;2023-03-24T04:25:31;4.95;;;3.30;;
9815;SDS011;4947;44.526;11.360;2023-03-24T04:28:08;6.55;;;3.35;;
9815;SDS011;4947;44.526;11.360;2023-03-24T04:30:46;7.80;;;3.72;;
9815;SDS011;4947;44.526;11.360;2023-03-24T04:33:17;4.47;;;3.80;;
9815;SDS011;4947;44.526;11.360;2023-03-24T04:35:54;3.55;;;3.22;;
9815;SDS011;4947;44.526;11.360;2023-03-24T04:38:30;6.97;;;4.05;;
9815;SDS011;4947;44.526;11.360;2023-03-24T04:41:02;4.88;;;3.85;;
9815;SDS011;4947;44.526;11.360;2023-03-24T04:43:31;5.50;;;3.50;;
9815;SDS011;4947;44.526;11.360;2023-03-24T04:46:03;3.80;;;3.45;;
9815;SDS011;4947;44.526;11.360;2023-03-24T04:48:32;4.30;;;3.65;;
9815;SDS011;4947;44.526;11.360;2023-03-24T04:51:01;4.13;;;3.63;;
9815;SDS011;4947;44.526;11.360;2023-03-24T04:53:36;6.88;;;3.90;;
9815;SDS011;4947;44.526;11.360;2023-03-24T04:56:11;3.95;;;3.20;;
9815;SDS011;4947;44.526;11.360;2023-03-24T04:58:55;7.15;;;3.60;;
9815;SDS011;4947;44.526;11.360;2023-03-24T05:01:24;6.80;;;3.80;;
9815;SDS011;4947;44.526;11.360;2023-03-24T05:03:55;6.30;;;3.65;;
9815;SDS011;4947;44.526;11.360;2023-03-24T05:06:23;4.25;;;3.58;;
9815;SDS011;4947;44.526;11.360;2023-03-24T05:08:51;6.35;;;3.00;;
9815;SDS011;4947;44.526;11.360;2023-03-24T05:11:19;4.80;;;4.15;;
9815;SDS011;4947;44.526;11.360;2023-03-24T05:13:46;7.13;;;3.88;;
9815;SDS011;4947;44.526;11.360;2023-03-24T05:16:13;4.50;;;3.45;;
9815;SDS011;4947;44.526;11.360;2023-03-24T05:18:42;5.15;;;3.40;;
9815;SDS011;4947;44.526;11.360;2023-03-24T05:21:10;6.45;;;3.92;;
9815;SDS011;4947;44.526;11.360;2023-03-24T05:23:37;4.00;;;3.58;;
9815;SDS011;4947;44.526;11.360;2023-03-24T05:26:04;4.72;;;3.30;;
9815;SDS011;4947;44.526;11.360;2023-03-24T05:28:32;4.50;;;3.13;;
9815;SDS011;4947;44.526;11.360;2023-03-24T05:31:00;6.13;;;3.38;;
9815;SDS011;4947;44.526;11.360;2023-03-24T05:33:28;4.72;;;3.40;;
9815;SDS011;4947;44.526;11.360;2023-03-24T05:35:57;6.60;;;4.07;;
9815;SDS011;4947;44.526;11.360;2023-03-24T05:38:24;3.95;;;3.35;;
9815;SDS011;4947;44.526;11.360;2023-03-24T05:40:54;3.80;;;3.20;;
9815;SDS011;4947;44.526;11.360;2023-03-24T05:43:22;6.13;;;3.35;;
9815;SDS011;4947;44.526;11.360;2023-03-24T05:45:50;4.00;;;3.17;;
9815;SDS011;4947;44.526;11.360;2023-03-24T05:48:17;6.47;;;2.97;;
9815;SDS011;4947;44.526;11.360;2023-03-24T05:50:45;4.95;;;3.60;;
9815;SDS011;4947;44.526;11.360;2023-03-24T05:53:14;6.75;;;3.83;;
9815;SDS011;4947;44.526;11.360;2023-03-24T05:55:43;6.03;;;3.63;;
9815;SDS011;4947;44.526;11.360;2023-03-24T05:58:11;7.43;;;3.47;;
9815;SDS011;4947;44.526;11.360;2023-03-24T06:00:40;4.80;;;3.55;;
9815;SDS011;4947;44.526;11.360;2023-03-24T06:03:11;4.30;;;3.90;;
9815;SDS011;4947;44.526;11.360;2023-03-24T06:05:41;3.13;;;2.92;;
9815;SDS011;4947;44.526;11.360;2023-03-24T06:08:09;3.55;;;3.15;;
9815;SDS011;4947;44.526;11.360;2023-03-24T06:10:39;4.00;;;3.60;;
9815;SDS011;4947;44.526;11.360;2023-03-24T06:13:07;5.53;;;3.33;;
9815;SDS011;4947;44.526;11.360;2023-03-24T06:15:34;4.18;;;3.03;;
9815;SDS011;4947;44.526;11.360;2023-03-24T06:18:03;6.30;;;3.42;;
9815;SDS011;4947;44.526;11.360;2023-03-24T06:20:31;4.68;;;3.90;;
9815;SDS011;4947;44.526;11.360;2023-03-24T06:23:00;5.47;;;3.20;;
9815;SDS011;4947;44.526;11.360;2023-03-24T06:25:27;5.85;;;3.40;;
9815;SDS011;4947;44.526;11.360;2023-03-24T06:27:56;9.73;;;3.85;;
9815;SDS011;4947;44.526;11.360;2023-03-24T06:30:28;6.45;;;3.92;;
9815;SDS011;4947;44.526;11.360;2023-03-24T06:32:55;6.15;;;3.22;;
9815;SDS011;4947;44.526;11.360;2023-03-24T06:35:22;3.95;;;3.38;;
9815;SDS011;4947;44.526;11.360;2023-03-24T06:37:49;4.10;;;3.15;;
9815;SDS011;4947;44.526;11.360;2023-03-24T06:40:16;6.15;;;3.42;;
9815;SDS011;4947;44.526;11.360;2023-03-24T06:42:44;5.45;;;3.20;;
9815;SDS011;4947;44.526;11.360;2023-03-24T06:45:12;3.95;;;3.10;;
9815;SDS011;4947;44.526;11.360;2023-03-24T06:47:40;4.13;;;3.20;;
9815;SDS011;4947;44.526;11.360;2023-03-24T06:50:15;3.75;;;3.13;;
9815;SDS011;4947;44.526;11.360;2023-03-24T06:52:42;7.38;;;3.25;;
9815;SDS011;4947;44.526;11.360;2023-03-24T06:55:10;6.18;;;3.13;;
9815;SDS011;4947;44.526;11.360;2023-03-24T06:57:37;6.53;;;3.65;;
9815;SDS011;4947;44.526;11.360;2023-03-24T07:00:05;2.80;;;2.55;;
9815;SDS011;4947;44.526;11.360;2023-03-24T07:02:35;6.18;;;3.33;;
9815;SDS011;4947;44.526;11.360;2023-03-24T07:05:03;3.17;;;2.53;;
9815;SDS011;4947;44.526;11.360;2023-03-24T07:07:32;3.60;;;2.95;;
9815;SDS011;4947;44.526;11.360;2023-03-24T07:09:59;3.08;;;2.67;;
9815;SDS011;4947;44.526;11.360;2023-03-24T07:12:27;3.13;;;2.83;;
9815;SDS011;4947;44.526;11.360;2023-03-24T07:14:55;2.80;;;2.35;;
9815;SDS011;4947;44.526;11.360;2023-03-24T07:17:22;2.65;;;2.13;;
9815;SDS011;4947;44.526;11.360;2023-03-24T07:19:51;3.08;;;2.78;;
9815;SDS011;4947;44.526;11.360;2023-03-24T07:22:20;3.13;;;2.55;;
9815;SDS011;4947;44.526;11.360;2023-03-24T07:24:47;2.75;;;2.55;;
9815;SDS011;4947;44.526;11.360;2023-03-24T07:27:15;4.57;;;2.63;;
9815;SDS011;4947;44.526;11.360;2023-03-24T07:29:43;3.60;;;2.50;;
9815;SDS011;4947;44.526;11.360;2023-03-24T07:32:10;3.97;;;2.55;;
9815;SDS011;4947;44.526;11.360;2023-03-24T07:34:38;2.67;;;1.92;;
9815;SDS011;4947;44.526;11.360;2023-03-24T07:37:09;2.70;;;2.40;;
9815;SDS011;4947;44.526;11.360;2023-03-24T07:39:36;2.85;;;2.08;;
9815;SDS011;4947;44.526;11.360;2023-03-24T07:42:04;2.55;;;2.33;;
9815;SDS011;4947;44.526;11.360;2023-03-24T07:44:31;4.80;;;2.38;;
9815;SDS011;4947;44.526;11.360;2023-03-24T07:46:59;3.55;;;2.30;;
9815;SDS011;4947;44.526;11.360;2023-03-24T07:49:26;3.65;;;1.98;;
9815;SDS011;4947;44.526;11.360;2023-03-24T07:51:54;3.55;;;2.15;;
9815;SDS011;4947;44.526;11.360;2023-03-24T07:54:26;5.25;;;2.13;;
9815;SDS011;4947;44.526;11.360;2023-03-24T07:56:53;3.22;;;2.33;;
9815;SDS011;4947;44.526;11.360;2023-03-24T07:59:20;3.08;;;1.98;;
9815;SDS011;4947;44.526;11.360;2023-03-24T08:01:48;2.95;;;2.30;;
9815;SDS011;4947;44.526;11.360;2023-03-24T08:04:15;6.20;;;1.90;;
9815;SDS011;4947;44.526;11.360;2023-03-24T08:06:46;3.08;;;1.95;;
9815;SDS011;4947;44.526;11.360;2023-03-24T08:09:14;2.58;;;2.03;;
9815;SDS011;4947;44.526;11.360;2023-03-24T08:11:43;3.78;;;1.98;;
9815;SDS011;4947;44.526;11.360;2023-03-24T08:14:11;2.08;;;1.70;;
9815;SDS011;4947;44.526;11.360;2023-03-24T08:16:38;1.60;;;1.50;;
9815;SDS011;4947;44.526;11.360;2023-03-24T08:19:06;3.63;;;2.45;;
9815;SDS011;4947;44.526;11.360;2023-03-24T08:21:33;2.72;;;1.80;;
9815;SDS011;4947;44.526;11.360;2023-03-24T08:24:01;4.47;;;1.67;;
9815;SDS011;4947;44.526;11.360;2023-03-24T08:26:28;5.10;;;1.83;;
9815;SDS011;4947;44.526;11.360;2023-03-24T08:29:00;3.47;;;1.80;;
9815;SDS011;4947;44.526;11.360;2023-03-24T08:31:30;3.60;;;1.70;;
9815;SDS011;4947;44.526;11.360;2023-03-24T08:33:58;5.15;;;2.42;;
9815;SDS011;4947;44.526;11.360;2023-03-24T08:36:26;7.25;;;2.88;;
9815;SDS011;4947;44.526;11.360;2023-03-24T08:38:53;3.08;;;2.33;;
9815;SDS011;4947;44.526;11.360;2023-03-24T08:41:22;4.45;;;2.50;;
9815;SDS011;4947;44.526;11.360;2023-03-24T08:43:54;3.53;;;2.67;;
9815;SDS011;4947;44.526;11.360;2023-03-24T08:46:24;4.97;;;2.60;;
9815;SDS011;4947;44.526;11.360;2023-03-24T08:48:51;3.13;;;2.20;;
9815;SDS011;4947;44.526;11.360;2023-03-24T08:51:19;4.25;;;3.13;;
9815;SDS011;4947;44.526;11.360;2023-03-24T08:53:46;3.20;;;2.45;;
9815;SDS011;4947;44.526;11.360;2023-03-24T08:56:15;6.22;;;2.53;;
9815;SDS011;4947;44.526;11.360;2023-03-24T08:58:42;6.97;;;2.72;;
9815;SDS011;4947;44.526;11.360;2023-03-24T09:01:10;5.15;;;2.83;;
9815;SDS011;4947;44.526;11.360;2023-03-24T09:03:39;4.32;;;2.42;;
9815;SDS011;4947;44.526;11.360;2023-03-24T09:06:07;4.28;;;2.30;;
9815;SDS011;4947;44.526;11.360;2023-03-24T09:08:34;2.80;;;2.55;;
9815;SDS011;4947;44.526;11.360;2023-03-24T09:11:05;3.30;;;2.25;;
9815;SDS011;4947;44.526;11.360;2023-03-24T09:13:39;3.80;;;2.40;;
9815;SDS011;4947;44.526;11.360;2023-03-24T09:16:06;3.42;;;2.47;;
9815;SDS011;4947;44.526;11.360;2023-03-24T09:18:34;4.72;;;2.65;;
9815;SDS011;4947;44.526;11.360;2023-03-24T09:21:04;3.83;;;2.53;;
9815;SDS011;4947;44.526;11.360;2023-03-24T09:23:31;2.67;;;2.20;;
9815;SDS011;4947;44.526;11.360;2023-03-24T09:25:59;4.40;;;2.60;;
9815;SDS011;4947;44.526;11.360;2023-03-24T09:28:27;5.18;;;3.17;;
9815;SDS011;4947;44.526;11.360;2023-03-24T09:30:56;6.05;;;2.58;;
9815;SDS011;4947;44.526;11.360;2023-03-24T09:33:24;4.20;;;2.88;;
9815;SDS011;4947;44.526;11.360;2023-03-24T09:35:53;3.45;;;2.70;;
9815;SDS011;4947;44.526;11.360;2023-03-24T09:38:23;3.70;;;2.30;;
9815;SDS011;4947;44.526;11.360;2023-03-24T09:40:52;4.55;;;2.45;;
9815;SDS011;4947;44.526;11.360;2023-03-24T09:43:23;5.82;;;2.35;;
9815;SDS011;4947;44.526;11.360;2023-03-24T09:45:57;3.78;;;2.95;;
9815;SDS011;4947;44.526;11.360;2023-03-24T09:48:30;7.03;;;3.05;;
9815;SDS011;4947;44.526;11.360;2023-03-24T09:51:01;6.95;;;3.65;;
9815;SDS011;4947;44.526;11.360;2023-03-24T09:53:33;5.88;;;3.22;;
9815;SDS011;4947;44.526;11.360;2023-03-24T09:56:10;6.20;;;3.30;;
9815;SDS011;4947;44.526;11.360;2023-03-24T09:58:39;5.30;;;2.95;;
9815;SDS011;4947;44.526;11.360;2023-03-24T10:01:10;4.82;;;3.35;;
9815;SDS011;4947;44.526;11.360;2023-03-24T10:03:40;3.40;;;3.03;;
9815;SDS011;4947;44.526;11.360;2023-03-24T10:06:09;5.78;;;3.38;;
9815;SDS011;4947;44.526;11.360;2023-03-24T10:08:42;6.22;;;3.47;;
9815;SDS011;4947;44.526;11.360;2023-03-24T10:11:14;6.75;;;3.03;;
9815;SDS011;4947;44.526;11.360;2023-03-24T10:13:55;4.55;;;3.20;;
9815;SDS011;4947;44.526;11.360;2023-03-24T10:16:31;4.10;;;3.70;;
9815;SDS011;4947;44.526;11.360;2023-03-24T10:19:07;4.72;;;3.45;;
9815;SDS011;4947;44.526;11.360;2023-03-24T10:21:44;6.68;;;3.60;;
9815;SDS011;4947;44.526;11.360;2023-03-24T10:24:22;4.22;;;3.40;;
9815;SDS011;4947;44.526;11.360;2023-03-24T10:26:56;4.43;;;3.42;;
9815;SDS011;4947;44.526;11.360;2023-03-24T10:29:31;4.22;;;3.42;;
9815;SDS011;4947;44.526;11.360;2023-03-24T10:32:01;4.68;;;3.28;;
9815;SDS011;4947;44.526;11.360;2023-03-24T10:34:30;5.30;;;4.50;;
9815;SDS011;4947;44.526;11.360;2023-03-24T10:37:00;5.57;;;3.85;;
9815;SDS011;4947;44.526;11.360;2023-03-24T10:39:31;3.50;;;3.20;;
9815;SDS011;4947;44.526;11.360;2023-03-24T10:41:59;4.18;;;3.47;;
9815;SDS011;4947;44.526;11.360;2023-03-24T10:44:27;4.82;;;3.75;;
9815;SDS011;4947;44.526;11.360;2023-03-24T10:46:55;5.78;;;3.83;;
9815;SDS011;4947;44.526;11.360;2023-03-24T10:49:28;5.38;;;3.38;;
9815;SDS011;4947;44.526;11.360;2023-03-24T10:51:58;5.53;;;3.42;;
9815;SDS011;4947;44.526;11.360;2023-03-24T10:54:28;6.63;;;3.70;;
9815;SDS011;4947;44.526;11.360;2023-03-24T10:57:01;5.28;;;3.42;;
9815;SDS011;4947;44.526;11.360;2023-03-24T10:59:30;3.97;;;3.58;;
9815;SDS011;4947;44.526;11.360;2023-03-24T11:02:02;4.32;;;3.72;;
9815;SDS011;4947;44.526;11.360;2023-03-24T11:04:42;6.00;;;3.83;;
9815;SDS011;4947;44.526;11.360;2023-03-24T11:07:16;9.32;;;4.95;;
9815;SDS011;4947;44.526;11.360;2023-03-24T11:09:46;5.22;;;4.07;;
9815;SDS011;4947;44.526;11.360;2023-03-24T11:12:24;6.13;;;4.50;;
9815;SDS011;4947;44.526;11.360;2023-03-24T11:15:13;9.27;;;4.07;;
9815;SDS011;4947;44.526;11.360;2023-03-24T11:17:43;5.10;;;4.38;;
9815;SDS011;4947;44.526;11.360;2023-03-24T11:20:15;6.32;;;4.20;;
9815;SDS011;4947;44.526;11.360;2023-03-24T11:22:58;7.40;;;5.28;;
9815;SDS011;4947;44.526;11.360;2023-03-24T11:25:30;8.07;;;5.10;;
9815;SDS011;4947;44.526;11.360;2023-03-24T11:27:59;8.23;;;4.85;;
9815;SDS011;4947;44.526;11.360;2023-03-24T11:30:28;6.47;;;5.60;;
9815;SDS011;4947;44.526;11.360;2023-03-24T11:33:00;6.40;;;4.85;;
9815;SDS011;4947;44.526;11.360;2023-03-24T11:35:29;8.25;;;5.10;;
9815;SDS011;4947;44.526;11.360;2023-03-24T11:37:57;9.48;;;4.93;;
9815;SDS011;4947;44.526;11.360;2023-03-24T11:40:31;7.57;;;5.38;;
9815;SDS011;4947;44.526;11.360;2023-03-24T11:42:59;7.25;;;4.70;;
9815;SDS011;4947;44.526;11.360;2023-03-24T11:45:32;5.57;;;4.93;;
9815;SDS011;4947;44.526;11.360;2023-03-24T11:48:03;12.15;;;5.90;;
9815;SDS011;4947;44.526;11.360;2023-03-24T11:50:41;7.88;;;6.10;;
9815;SDS011;4947;44.526;11.360;2023-03-24T11:53:10;6.90;;;5.93;;
9815;SDS011;4947;44.526;11.360;2023-03-24T11:55:46;8.90;;;5.63;;
9815;SDS011;4947;44.526;11.360;2023-03-24T11:58:19;7.70;;;6.13;;
9815;SDS011;4947;44.526;11.360;2023-03-24T12:00:56;9.48;;;5.95;;
9815;SDS011;4947;44.526;11.360;2023-03-24T12:03:37;10.05;;;5.50;;
9815;SDS011;4947;44.526;11.360;2023-03-24T12:06:29;6.47;;;5.38;;
9815;SDS011;4947;44.526;11.360;2023-03-24T12:09:07;13.45;;;6.15;;
9815;SDS011;4947;44.526;11.360;2023-03-24T12:12:04;6.28;;;5.05;;
9815;SDS011;4947;44.526;11.360;2023-03-24T12:14:46;8.73;;;4.50;;
9815;SDS011;4947;44.526;11.360;2023-03-24T12:17:25;11.18;;;5.95;;
9815;SDS011;4947;44.526;11.360;2023-03-24T12:20:07;9.35;;;5.78;;
9815;SDS011;4947;44.526;11.360;2023-03-24T12:22:53;9.77;;;6.20;;
9815;SDS011;4947;44.526;11.360;2023-03-24T12:25:33;7.75;;;6.40;;
9815;SDS011;4947;44.526;11.360;2023-03-24T12:28:18;9.57;;;6.60;;
9815;SDS011;4947;44.526;11.360;2023-03-24T12:30:58;7.90;;;6.03;;
9815;SDS011;4947;44.526;11.360;2023-03-24T12:33:37;9.25;;;6.10;;
9815;SDS011;4947;44.526;11.360;2023-03-24T12:36:29;7.72;;;5.75;;
9815;SDS011;4947;44.526;11.360;2023-03-24T12:39:07;7.30;;;6.00;;
9815;SDS011;4947;44.526;11.360;2023-03-24T12:44:43;7.57;;;6.28;;
9815;SDS011;4947;44.526;11.360;2023-03-24T12:47:34;7.55;;;5.13;;
9815;SDS011;4947;44.526;11.360;2023-03-24T12:50:11;9.13;;;6.07;;
9815;SDS011;4947;44.526;11.360;2023-03-24T12:52:56;8.35;;;6.07;;
9815;SDS011;4947;44.526;11.360;2023-03-24T12:55:34;8.30;;;6.38;;
9815;SDS011;4947;44.526;11.360;2023-03-24T12:58:10;8.85;;;5.85;;
9815;SDS011;4947;44.526;11.360;2023-03-24T13:00:55;8.18;;;5.95;;
9815;SDS011;4947;44.526;11.360;2023-03-24T13:03:29;8.60;;;6.25;;
9815;SDS011;4947;44.526;11.360;2023-03-24T13:06:05;9.13;;;5.53;;
9815;SDS011;4947;44.526;11.360;2023-03-24T13:08:50;7.50;;;5.45;;
9815;SDS011;4947;44.526;11.360;2023-03-24T13:11:30;10.93;;;6.45;;
9815;SDS011;4947;44.526;11.360;2023-03-24T13:14:05;6.55;;;5.75;;
9815;SDS011;4947;44.526;11.360;2023-03-24T13:16:41;10.82;;;5.45;;
9815;SDS011;4947;44.526;11.360;2023-03-24T13:19:13;10.10;;;5.53;;
9815;SDS011;4947;44.526;11.360;2023-03-24T13:21:45;10.10;;;6.90;;
9815;SDS011;4947;44.526;11.360;2023-03-24T13:24:14;11.63;;;6.60;;
9815;SDS011;4947;44.526;11.360;2023-03-24T13:26:46;7.75;;;6.53;;
9815;SDS011;4947;44.526;11.360;2023-03-24T13:29:22;7.97;;;5.80;;
9815;SDS011;4947;44.526;11.360;2023-03-24T13:31:59;7.25;;;5.22;;
9815;SDS011;4947;44.526;11.360;2023-03-24T13:34:34;7.40;;;5.63;;
9815;SDS011;4947;44.526;11.360;2023-03-24T13:37:05;8.13;;;5.93;;
9815;SDS011;4947;44.526;11.360;2023-03-24T13:39:36;8.02;;;6.30;;
9815;SDS011;4947;44.526;11.360;2023-03-24T13:42:04;8.27;;;5.72;;
9815;SDS011;4947;44.526;11.360;2023-03-24T13:44:35;7.32;;;5.03;;
9815;SDS011;4947;44.526;11.360;2023-03-24T13:47:07;7.50;;;4.75;;
9815;SDS011;4947;44.526;11.360;2023-03-24T13:49:38;6.95;;;4.80;;
9815;SDS011;4947;44.526;11.360;2023-03-24T13:52:19;8.55;;;4.85;;
9815;SDS011;4947;44.526;11.360;2023-03-24T13:54:53;5.78;;;4.80;;
9815;SDS011;4947;44.526;11.360;2023-03-24T13:57:26;8.05;;;4.90;;
9815;SDS011;4947;44.526;11.360;2023-03-24T13:59:58;6.97;;;4.47;;
9815;SDS011;4947;44.526;11.360;2023-03-24T14:02:41;7.63;;;4.85;;
9815;SDS011;4947;44.526;11.360;2023-03-24T14:05:11;6.22;;;5.03;;
9815;SDS011;4947;44.526;11.360;2023-03-24T14:08:09;9.43;;;4.57;;
9815;SDS011;4947;44.526;11.360;2023-03-24T14:10:40;6.13;;;5.00;;
9815;SDS011;4947;44.526;11.360;2023-03-24T14:13:19;5.45;;;4.30;;
9815;SDS011;4947;44.526;11.360;2023-03-24T14:19:21;6.03;;;5.22;;
9815;SDS011;4947;44.526;11.360;2023-03-24T14:21:50;7.13;;;4.55;;
9815;SDS011;4947;44.526;11.360;2023-03-24T14:24:22;5.75;;;4.10;;
9815;SDS011;4947;44.526;11.360;2023-03-24T14:26:51;5.90;;;4.75;;
9815;SDS011;4947;44.526;11.360;2023-03-24T14:29:34;7.28;;;4.88;;
9815;SDS011;4947;44.526;11.360;2023-03-24T14:32:04;8.73;;;4.32;;
9815;SDS011;4947;44.526;11.360;2023-03-24T14:34:34;5.03;;;4.18;;
9815;SDS011;4947;44.526;11.360;2023-03-24T14:37:03;7.22;;;4.13;;
9815;SDS011;4947;44.526;11.360;2023-03-24T14:39:35;7.57;;;5.03;;
9815;SDS011;4947;44.526;11.360;2023-03-24T14:45:10;8.00;;;4.60;;
9815;SDS011;4947;44.526;11.360;2023-03-24T14:48:05;7.80;;;4.20;;
9815;SDS011;4947;44.526;11.360;2023-03-24T14:50:49;5.55;;;3.55;;
9815;SDS011;4947;44.526;11.360;2023-03-24T14:53:19;5.40;;;4.15;;
9815;SDS011;4947;44.526;11.360;2023-03-24T14:55:49;5.85;;;4.30;;
9815;SDS011;4947;44.526;11.360;2023-03-24T14:58:20;4.35;;;3.95;;
9815;SDS011;4947;44.526;11.360;2023-03-24T15:00:50;9.43;;;4.35;;
9815;SDS011;4947;44.526;11.360;2023-03-24T15:03:22;9.85;;;3.88;;
9815;SDS011;4947;44.526;11.360;2023-03-24T15:06:10;4.72;;;3.85;;
9815;SDS011;4947;44.526;11.360;2023-03-24T15:08:43;5.38;;;3.75;;
9815;SDS011;4947;44.526;11.360;2023-03-24T15:11:14;5.25;;;3.47;;
9815;SDS011;4947;44.526;11.360;2023-03-24T15:13:44;8.88;;;3.90;;
9815;SDS011;4947;44.526;11.360;2023-03-24T15:16:16;4.88;;;3.75;;
9815;SDS011;4947;44.526;11.360;2023-03-24T15:18:47;6.70;;;3.45;;
9815;SDS011;4947;44.526;11.360;2023-03-24T15:21:21;4.22;;;3.35;;
9815;SDS011;4947;44.526;11.360;2023-03-24T15:23:51;3.92;;;3.38;;
9815;SDS011;4947;44.526;11.360;2023-03-24T15:26:19;6.25;;;3.35;;
9815;SDS011;4947;44.526;11.360;2023-03-24T15:28:58;5.88;;;3.33;;
9815;SDS011;4947;44.526;11.360;2023-03-24T15:31:27;4.45;;;3.97;;
9815;SDS011;4947;44.526;11.360;2023-03-24T15:34:01;3.97;;;2.60;;
9815;SDS011;4947;44.526;11.360;2023-03-24T15:36:36;2.60;;;2.38;;
9815;SDS011;4947;44.526;11.360;2023-03-24T15:39:15;4.18;;;2.58;;
9815;SDS011;4947;44.526;11.360;2023-03-24T15:41:44;4.47;;;2.80;;
9815;SDS011;4947;44.526;11.360;2023-03-24T15:44:15;6.35;;;2.85;;
9815;SDS011;4947;44.526;11.360;2023-03-24T15:46:45;4.97;;;3.20;;
9815;SDS011;4947;44.526;11.360;2023-03-24T15:49:17;4.97;;;3.30;;
9815;SDS011;4947;44.526;11.360;2023-03-24T15:51:51;3.38;;;2.97;;
9815;SDS011;4947;44.526;11.360;2023-03-24T15:54:23;6.88;;;2.58;;